Time;durP1;ratioP1;P1;durP2;ratioP2;P2;SDS_P1;SDS_P2;PMS_P1;PMS_P2;Temp;Humidity;BMP_temperature;BMP_pressure;BME280_temperature;BME280_humidity;BME280_pressure;Samples;Min_cycle;Max_cycle;Signal;HPM_P1;HPM_P2
2021/01/22 00:00:32;;;;;;;6.00;5.50;;;8.90;99.90;;;;;;4987318;28;20232;-53
2021/01/22 00:03:04;;;;;;;5.53;5.03;;;8.70;99.90;;;;;;4988414;28;20237;-51
2021/01/22 00:05:34;;;;;;;6.70;6.00;;;8.80;99.90;;;;;;4975263;28;20201;-52
2021/01/22 00:08:07;;;;;;;6.05;5.40;;;8.80;99.90;;;;;;4983577;28;20293;-49
2021/01/22 00:10:37;;;;;;;4.45;4.10;;;8.70;99.90;;;;;;4981442;28;20212;-52
2021/01/22 00:13:08;;;;;;;5.10;4.63;;;8.70;99.90;;;;;;4978724;28;20232;-50
2021/01/22 00:15:38;;;;;;;4.65;4.20;;;8.60;99.90;;;;;;4976986;28;20206;-50
2021/01/22 00:18:08;;;;;;;5.00;4.40;;;8.60;99.90;;;;;;4968997;28;20205;-53
2021/01/22 00:20:39;;;;;;;5.18;4.45;;;8.50;99.90;;;;;;4977817;28;20237;-53
2021/01/22 00:23:10;;;;;;;5.82;5.05;;;8.50;99.90;;;;;;4971226;28;20234;-52
2021/01/22 00:25:40;;;;;;;4.43;4.05;;;8.50;99.90;;;;;;4964044;29;20264;-52
2021/01/22 00:28:10;;;;;;;5.13;4.63;;;8.40;99.90;;;;;;4978129;28;20257;-53
2021/01/22 00:30:40;;;;;;;4.50;4.10;;;8.40;99.90;;;;;;4981080;28;20620;-51
2021/01/22 00:33:10;;;;;;;5.07;4.43;;;8.30;99.90;;;;;;4984198;28;20266;-53
2021/01/22 00:35:40;;;;;;;5.00;4.22;;;8.30;99.90;;;;;;4982056;28;20254;-54
2021/01/22 00:38:12;;;;;;;4.30;3.92;;;8.40;99.90;;;;;;4990333;28;20211;-54
2021/01/22 00:40:42;;;;;;;4.15;3.67;;;8.40;99.90;;;;;;4975326;28;20223;-53
2021/01/22 00:43:12;;;;;;;4.10;3.67;;;8.30;99.90;;;;;;4980559;28;20936;-53
2021/01/22 00:45:42;;;;;;;4.10;3.80;;;8.20;99.90;;;;;;4980841;28;20235;-53
2021/01/22 00:48:12;;;;;;;3.35;3.05;;;8.30;99.90;;;;;;4968652;28;20205;-51
2021/01/22 00:50:42;;;;;;;3.70;3.40;;;8.20;99.90;;;;;;4976178;28;20821;-54
2021/01/22 00:53:14;;;;;;;3.45;3.15;;;8.10;99.90;;;;;;4979782;28;20201;-55
2021/01/22 00:55:44;;;;;;;3.55;3.25;;;8.00;99.90;;;;;;4972884;28;20220;-54
2021/01/22 00:58:14;;;;;;;3.65;3.35;;;7.90;99.90;;;;;;4982704;28;20205;-53
2021/01/22 01:00:44;;;;;;;3.88;3.03;;;7.80;99.90;;;;;;4982727;28;20263;-52
2021/01/22 01:03:14;;;;;;;3.30;3.10;;;7.80;99.90;;;;;;4980089;28;20259;-49
2021/01/22 01:05:44;;;;;;;3.15;2.80;;;7.80;99.90;;;;;;4967845;28;20197;-52
2021/01/22 01:08:16;;;;;;;3.15;2.95;;;7.80;99.90;;;;;;4982555;28;20629;-53
2021/01/22 01:10:47;;;;;;;3.60;3.30;;;7.70;99.90;;;;;;4972117;28;20304;-51
2021/01/22 01:13:17;;;;;;;3.67;2.60;;;7.70;99.90;;;;;;4980642;28;20209;-55
2021/01/22 01:15:47;;;;;;;3.10;2.90;;;7.70;99.90;;;;;;4980831;28;20201;-51
2021/01/22 01:18:17;;;;;;;2.90;2.70;;;7.70;99.90;;;;;;4980048;28;20229;-53
2021/01/22 01:20:54;;;;;;;3.55;3.25;;;7.80;99.90;;;;;;4975232;28;20595;-53
2021/01/22 01:23:25;;;;;;;3.10;2.90;;;7.80;99.90;;;;;;4977586;28;20212;-49
2021/01/22 01:25:55;;;;;;;2.97;2.78;;;7.70;99.90;;;;;;4973988;28;20670;-52
2021/01/22 01:28:25;;;;;;;3.03;2.65;;;7.70;99.90;;;;;;4982368;28;20200;-51
2021/01/22 01:30:55;;;;;;;2.80;2.60;;;7.60;99.90;;;;;;4997888;28;20188;-47
2021/01/22 01:33:25;;;;;;;2.75;2.55;;;7.60;99.90;;;;;;4988849;28;20209;-52
2021/01/22 01:35:55;;;;;;;3.60;3.30;;;7.60;99.90;;;;;;4990030;28;20565;-47
2021/01/22 01:38:26;;;;;;;3.13;2.60;;;7.60;99.90;;;;;;4970801;28;20205;-51
2021/01/22 01:40:56;;;;;;;3.10;2.70;;;7.60;99.90;;;;;;4969924;28;20241;-52
2021/01/22 01:43:28;;;;;;;3.20;2.90;;;7.60;99.90;;;;;;4982573;28;20200;-51
2021/01/22 01:45:58;;;;;;;2.65;2.45;;;7.60;99.90;;;;;;4984294;28;20816;-51
2021/01/22 01:48:30;;;;;;;3.03;2.72;;;7.50;99.90;;;;;;4993794;28;20200;-50
2021/01/22 01:51:01;;;;;;;3.35;3.05;;;7.50;99.90;;;;;;4990628;28;20308;-52
2021/01/22 01:53:33;;;;;;;2.60;2.40;;;7.50;99.90;;;;;;4983160;28;20201;-53
2021/01/22 01:56:04;;;;;;;2.78;2.55;;;7.50;99.90;;;;;;4982826;28;20236;-52
2021/01/22 01:58:35;;;;;;;2.88;2.67;;;7.50;99.90;;;;;;4995331;28;20193;-53
2021/01/22 02:01:05;;;;;;;3.13;2.88;;;7.50;99.90;;;;;;4968297;28;20241;-51
2021/01/22 02:03:35;;;;;;;3.42;3.13;;;7.50;99.90;;;;;;4977726;28;20204;-53
2021/01/22 02:06:06;;;;;;;3.22;3.03;;;7.60;99.90;;;;;;4985169;28;20208;-53
2021/01/22 02:08:38;;;;;;;2.45;2.25;;;7.50;99.90;;;;;;4983654;28;20204;-51
2021/01/22 02:11:14;;;;;;;3.22;3.03;;;7.50;99.90;;;;;;4970583;28;20247;-50
2021/01/22 02:13:47;;;;;;;3.63;3.33;;;7.50;99.90;;;;;;4970400;28;20213;-53
2021/01/22 02:16:17;;;;;;;4.43;4.03;;;7.50;99.90;;;;;;4979163;28;20296;-49
2021/01/22 02:18:48;;;;;;;5.10;4.10;;;7.40;99.90;;;;;;4973985;28;20204;-54
2021/01/22 02:21:25;;;;;;;4.53;4.13;;;7.40;99.90;;;;;;4982964;28;20207;-53
2021/01/22 02:24:02;;;;;;;3.63;3.33;;;7.40;99.90;;;;;;4984432;28;20212;-52
2021/01/22 02:26:54;;;;;;;6.43;4.80;;;7.40;99.90;;;;;;4993741;28;20278;-53
2021/01/22 02:29:24;;;;;;;6.53;5.57;;;7.40;99.90;;;;;;4983248;28;20226;-53
2021/01/22 02:31:56;;;;;;;7.03;6.20;;;7.40;99.90;;;;;;4983432;28;20244;-52
2021/01/22 02:34:30;;;;;;;5.97;5.47;;;7.40;99.90;;;;;;4992983;28;20211;-52
2021/01/22 02:37:01;;;;;;;6.20;5.70;;;7.40;99.90;;;;;;4986517;28;20675;-53
2021/01/22 02:39:35;;;;;;;6.40;5.70;;;7.40;99.90;;;;;;4966328;28;20261;-52
2021/01/22 02:42:09;;;;;;;6.57;5.88;;;7.40;99.90;;;;;;4965645;28;20213;-55
2021/01/22 02:44:40;;;;;;;6.50;5.90;;;7.40;99.90;;;;;;4984810;28;20201;-55
2021/01/22 02:47:12;;;;;;;7.00;5.75;;;7.40;99.90;;;;;;4975298;28;20201;-54
2021/01/22 02:49:42;;;;;;;6.30;5.70;;;7.50;99.90;;;;;;4977468;28;20259;-54
2021/01/22 02:52:12;;;;;;;6.28;5.70;;;7.50;99.90;;;;;;4990021;28;20201;-56
2021/01/22 02:54:43;;;;;;;5.90;5.40;;;7.50;99.90;;;;;;4985329;28;20205;-52
2021/01/22 02:57:21;;;;;;;6.63;5.35;;;7.50;99.90;;;;;;4974465;28;20605;-55
2021/01/22 03:00:00;;;;;;;4.35;3.95;;;7.60;99.90;;;;;;4992814;28;20555;-53
2021/01/22 03:02:39;;;;;;;4.72;4.35;;;7.60;99.90;;;;;;4971144;28;20241;-56
2021/01/22 03:05:11;;;;;;;2.95;2.75;;;7.60;99.90;;;;;;4970730;28;20193;-52
2021/01/22 03:07:47;;;;;;;3.28;3.03;;;7.60;99.90;;;;;;4977164;28;20201;-53
2021/01/22 03:10:20;;;;;;;3.05;2.75;;;7.60;99.90;;;;;;4981723;28;20212;-56
2021/01/22 03:12:54;;;;;;;2.85;2.65;;;7.60;99.90;;;;;;4986901;28;20232;-53
2021/01/22 03:15:24;;;;;;;4.75;3.78;;;7.60;99.90;;;;;;4987167;28;20263;-55
2021/01/22 03:18:11;;;;;;;3.65;3.35;;;7.60;99.90;;;;;;4975383;28;20241;-56
2021/01/22 03:20:43;;;;;;;2.80;2.60;;;7.60;99.90;;;;;;4981743;28;20199;-54
2021/01/22 03:23:15;;;;;;;3.00;2.80;;;7.60;99.90;;;;;;4981600;28;20229;-54
2021/01/22 03:25:45;;;;;;;3.50;3.20;;;7.60;99.90;;;;;;4975020;28;20204;-52
2021/01/22 03:28:16;;;;;;;3.78;3.25;;;7.60;99.90;;;;;;4984873;28;20219;-53
2021/01/22 03:30:47;;;;;;;3.40;3.10;;;7.70;99.90;;;;;;4971245;28;20213;-53
2021/01/22 03:33:17;;;;;;;3.10;2.80;;;7.80;99.90;;;;;;4971137;28;20232;-54
2021/01/22 03:35:47;;;;;;;3.05;2.85;;;7.70;99.90;;;;;;4980939;28;20200;-54
2021/01/22 03:38:17;;;;;;;3.13;2.90;;;7.80;99.90;;;;;;4988050;28;20678;-53
2021/01/22 03:40:47;;;;;;;3.67;3.38;;;7.80;99.90;;;;;;4971558;28;20205;-52
2021/01/22 03:43:18;;;;;;;3.17;2.97;;;7.80;99.90;;;;;;4973341;28;20202;-54
2021/01/22 03:45:48;;;;;;;3.15;2.85;;;7.80;99.90;;;;;;4979207;28;20209;-52
2021/01/22 03:48:19;;;;;;;3.97;2.92;;;7.80;99.90;;;;;;4982154;28;20228;-52
2021/01/22 03:50:50;;;;;;;4.03;3.58;;;7.80;99.90;;;;;;4984141;28;20204;-53
2021/01/22 03:53:20;;;;;;;4.38;4.07;;;7.80;99.90;;;;;;4982563;28;20236;-53
2021/01/22 03:55:56;;;;;;;4.90;3.67;;;7.80;99.90;;;;;;4979840;28;20263;-54
2021/01/22 03:58:27;;;;;;;3.70;3.50;;;7.70;99.90;;;;;;4982798;28;20221;-54
2021/01/22 04:00:57;;;;;;;2.72;2.53;;;7.70;99.90;;;;;;4978583;28;20263;-54
2021/01/22 04:03:27;;;;;;;3.28;3.05;;;7.70;99.90;;;;;;4977888;28;20205;-55
2021/01/22 04:05:58;;;;;;;2.80;2.60;;;7.60;99.90;;;;;;4978912;28;20615;-54
2021/01/22 04:08:28;;;;;;;3.55;3.25;;;7.70;99.90;;;;;;4975988;28;20217;-49
2021/01/22 04:10:59;;;;;;;4.40;3.45;;;7.70;99.90;;;;;;4973261;28;20212;-53
2021/01/22 04:13:31;;;;;;;5.22;4.72;;;7.70;99.90;;;;;;4974960;28;20682;-53
2021/01/22 04:16:01;;;;;;;4.28;3.88;;;7.70;99.90;;;;;;4977835;28;20205;-52
2021/01/22 04:18:32;;;;;;;3.67;3.38;;;7.70;99.90;;;;;;4974593;28;20244;-53
2021/01/22 04:21:02;;;;;;;2.72;2.53;;;7.70;99.90;;;;;;4974199;28;20258;-55
2021/01/22 04:23:32;;;;;;;3.75;3.25;;;7.70;99.90;;;;;;4975509;28;20212;-54
2021/01/22 04:26:02;;;;;;;3.35;3.05;;;7.70;99.90;;;;;;4973030;28;20209;-52
2021/01/22 04:28:33;;;;;;;2.85;2.65;;;7.70;99.90;;;;;;4974867;28;20635;-52
2021/01/22 04:31:04;;;;;;;3.53;3.22;;;7.80;99.90;;;;;;4977614;28;20244;-52
2021/01/22 04:33:34;;;;;;;4.30;3.28;;;7.80;99.90;;;;;;4973382;28;20255;-50
2021/01/22 04:36:04;;;;;;;3.83;3.53;;;7.70;99.90;;;;;;4980391;28;20557;-52
2021/01/22 04:38:34;;;;;;;3.00;2.70;;;7.70;99.90;;;;;;4977034;28;20224;-55
2021/01/22 04:41:04;;;;;;;3.10;2.80;;;7.70;99.90;;;;;;4973298;28;20521;-55
2021/01/22 04:43:38;;;;;;;3.13;2.92;;;7.80;99.90;;;;;;4972202;28;20217;-55
2021/01/22 04:46:08;;;;;;;3.38;3.08;;;7.70;99.90;;;;;;4972932;28;20205;-54
2021/01/22 04:48:39;;;;;;;3.95;3.17;;;7.70;99.90;;;;;;4978528;28;20296;-54
2021/01/22 04:51:09;;;;;;;3.15;2.95;;;7.70;99.90;;;;;;4988209;28;20204;-53
2021/01/22 04:53:41;;;;;;;3.58;3.17;;;7.70;99.90;;;;;;4985528;28;20639;-55
2021/01/22 04:56:13;;;;;;;4.05;3.75;;;7.70;99.90;;;;;;4981748;28;20200;-55
2021/01/22 04:58:49;;;;;;;3.50;2.97;;;7.70;99.90;;;;;;4978108;28;20237;-55
2021/01/22 05:01:21;;;;;;;2.72;2.30;;;7.70;99.90;;;;;;4976518;28;20208;-48
2021/01/22 05:03:51;;;;;;;2.75;2.55;;;7.60;99.90;;;;;;4983016;28;21819;-48
2021/01/22 05:06:21;;;;;;;2.63;2.42;;;7.70;99.90;;;;;;4984588;28;20231;-48
2021/01/22 05:08:53;;;;;;;2.70;2.50;;;7.60;99.90;;;;;;4976093;28;20212;-49
2021/01/22 05:11:25;;;;;;;2.88;2.65;;;7.50;99.90;;;;;;4975437;28;20233;-52
2021/01/22 05:13:57;;;;;;;2.85;2.53;;;7.50;99.90;;;;;;4981045;28;20212;-50
2021/01/22 05:16:27;;;;;;;2.65;2.45;;;7.50;99.90;;;;;;4980533;28;20185;-54
2021/01/22 05:18:57;;;;;;;2.67;2.47;;;7.50;99.90;;;;;;4981040;28;20624;-53
2021/01/22 05:21:40;;;;;;;2.38;2.22;;;7.40;99.90;;;;;;4973266;28;20208;-54
2021/01/22 05:24:21;;;;;;;2.85;2.65;;;7.40;99.90;;;;;;4979812;28;20209;-51
2021/01/22 05:27:00;;;;;;;2.53;2.33;;;7.40;99.90;;;;;;4976390;28;20275;-52
2021/01/22 05:29:34;;;;;;;2.28;2.17;;;7.40;99.90;;;;;;4974685;28;20200;-53
2021/01/22 05:32:25;;;;;;;2.70;2.50;;;7.40;99.90;;;;;;4975150;28;20227;-52
2021/01/22 05:34:55;;;;;;;2.60;2.40;;;7.30;99.90;;;;;;4981000;28;20688;-53
2021/01/22 05:37:27;;;;;;;2.38;2.17;;;7.30;99.90;;;;;;4979564;28;20228;-56
2021/01/22 05:40:21;;;;;;;2.50;2.30;;;7.30;99.90;;;;;;4981230;28;20210;-55
2021/01/22 05:42:52;;;;;;;2.33;2.13;;;7.30;99.90;;;;;;4963409;28;20228;-54
2021/01/22 05:45:44;;;;;;;3.40;2.45;;;7.30;99.90;;;;;;4986344;28;20212;-52
2021/01/22 05:48:21;;;;;;;2.70;2.50;;;7.20;99.90;;;;;;4981686;28;20224;-53
2021/01/22 05:50:53;;;;;;;2.50;2.30;;;7.30;99.90;;;;;;4980055;28;20206;-51
2021/01/22 05:53:24;;;;;;;2.53;2.33;;;7.30;99.90;;;;;;4980172;28;20231;-53
2021/01/22 05:56:08;;;;;;;2.50;2.30;;;7.30;99.90;;;;;;4974979;28;20210;-54
2021/01/22 05:58:39;;;;;;;2.22;2.13;;;7.30;99.90;;;;;;4982706;28;20283;-53
2021/01/22 06:01:15;;;;;;;2.35;2.03;;;7.30;99.90;;;;;;4983140;28;20339;-54
2021/01/22 06:03:46;;;;;;;2.95;2.65;;;7.40;99.90;;;;;;4981445;28;20224;-54
2021/01/22 06:06:17;;;;;;;3.00;2.78;;;7.30;99.90;;;;;;4984091;28;20197;-53
2021/01/22 06:08:51;;;;;;;2.45;2.25;;;7.30;99.90;;;;;;4980281;28;20237;-52
2021/01/22 06:11:42;;;;;;;2.35;2.15;;;7.30;99.90;;;;;;4971701;28;20236;-55
2021/01/22 06:14:15;;;;;;;2.60;2.40;;;7.40;99.90;;;;;;4985692;28;20196;-54
2021/01/22 06:16:49;;;;;;;2.92;2.70;;;7.40;99.90;;;;;;4985497;28;20262;-54
2021/01/22 06:19:22;;;;;;;4.68;2.85;;;7.40;99.90;;;;;;4982956;28;20228;-53
2021/01/22 06:22:01;;;;;;;3.17;2.88;;;7.40;99.90;;;;;;4972663;28;20212;-55
2021/01/22 06:24:32;;;;;;;4.07;3.60;;;7.30;99.90;;;;;;4981526;28;20215;-54
2021/01/22 06:27:04;;;;;;;3.50;3.20;;;7.40;99.90;;;;;;4981283;28;20205;-52
2021/01/22 06:29:37;;;;;;;3.67;3.35;;;7.40;99.90;;;;;;4970690;28;20639;-54
2021/01/22 06:32:10;;;;;;;3.42;3.13;;;7.40;99.90;;;;;;4978965;28;20196;-54
2021/01/22 06:34:41;;;;;;;3.83;3.50;;;7.40;99.90;;;;;;4984013;28;20319;-53
2021/01/22 06:37:12;;;;;;;3.22;2.92;;;7.40;99.90;;;;;;4984816;28;20235;-54
2021/01/22 06:39:45;;;;;;;4.25;3.85;;;7.20;99.90;;;;;;4971442;28;20217;-51
2021/01/22 06:42:15;;;;;;;3.90;3.60;;;7.30;99.90;;;;;;4978484;28;20217;-53
2021/01/22 06:44:45;;;;;;;4.88;3.13;;;7.30;99.90;;;;;;4985479;28;20241;-53
2021/01/22 06:47:16;;;;;;;4.45;4.05;;;7.20;99.90;;;;;;4976067;28;20220;-53
2021/01/22 06:49:46;;;;;;;3.55;3.25;;;7.20;99.90;;;;;;4984959;28;20600;-52
2021/01/22 06:52:17;;;;;;;4.88;3.50;;;7.10;99.90;;;;;;4977973;28;20210;-54
2021/01/22 06:55:07;;;;;;;3.30;3.08;;;7.10;99.90;;;;;;4983585;28;20232;-53
2021/01/22 06:57:38;;;;;;;3.33;3.03;;;7.10;99.90;;;;;;4983604;28;20246;-54
2021/01/22 07:00:37;;;;;;;3.40;3.05;;;7.10;99.90;;;;;;4984714;28;20209;-57
2021/01/22 07:03:08;;;;;;;3.03;2.80;;;7.10;99.90;;;;;;4978622;28;20287;-58
2021/01/22 07:05:40;;;;;;;3.70;3.13;;;7.10;99.90;;;;;;4976596;28;20217;-55
2021/01/22 07:08:11;;;;;;;4.25;3.88;;;7.00;99.90;;;;;;4984341;28;20585;-58
2021/01/22 07:11:03;;;;;;;3.67;3.35;;;7.00;99.90;;;;;;4983785;28;20216;-56
2021/01/22 07:13:42;;;;;;;3.60;3.30;;;7.00;99.90;;;;;;4984566;28;20838;-55
2021/01/22 07:16:23;;;;;;;4.15;3.75;;;7.00;99.90;;;;;;4979439;28;20209;-56
2021/01/22 07:18:56;;;;;;;4.03;3.72;;;6.90;99.90;;;;;;4983142;28;20278;-55
2021/01/22 07:21:37;;;;;;;4.32;3.30;;;6.90;99.90;;;;;;4970991;28;20213;-55
2021/01/22 07:24:12;;;;;;;3.97;3.60;;;6.90;99.90;;;;;;4977867;28;20201;-56
2021/01/22 07:26:45;;;;;;;4.60;3.80;;;6.80;99.90;;;;;;4983471;28;20204;-54
2021/01/22 07:29:27;;;;;;;3.55;3.25;;;6.80;99.90;;;;;;4983990;28;20304;-54
2021/01/22 07:32:01;;;;;;;4.22;3.83;;;6.80;99.90;;;;;;4983665;28;20205;-51
2021/01/22 07:34:59;;;;;;;3.63;3.33;;;6.80;99.90;;;;;;4981321;28;20267;-53
2021/01/22 07:37:38;;;;;;;4.03;3.63;;;6.80;99.90;;;;;;4974011;28;20228;-52
2021/01/22 07:40:10;;;;;;;3.85;3.55;;;6.80;99.90;;;;;;4983911;28;20208;-54
2021/01/22 07:42:41;;;;;;;3.83;3.05;;;6.70;99.90;;;;;;4982500;28;20236;-55
2021/01/22 07:45:13;;;;;;;4.30;3.90;;;6.70;99.90;;;;;;4984261;28;20220;-55
2021/01/22 07:47:47;;;;;;;3.85;3.55;;;6.70;99.90;;;;;;4974637;28;20278;-55
2021/01/22 07:50:19;;;;;;;3.83;3.45;;;6.60;99.90;;;;;;4983579;28;20215;-55
2021/01/22 07:52:50;;;;;;;3.83;3.35;;;6.70;99.90;;;;;;4982904;28;20618;-55
2021/01/22 07:55:22;;;;;;;3.67;3.20;;;6.60;99.90;;;;;;4983764;28;20236;-55
2021/01/22 07:58:03;;;;;;;4.40;4.00;;;6.60;99.90;;;;;;4982244;28;20221;-55
2021/01/22 08:00:39;;;;;;;3.67;3.33;;;6.70;99.90;;;;;;4982919;28;20208;-54
2021/01/22 08:03:11;;;;;;;3.58;3.22;;;6.60;99.90;;;;;;4968889;28;20208;-55
2021/01/22 08:05:43;;;;;;;3.50;3.20;;;6.60;99.90;;;;;;4983830;28;20205;-53
2021/01/22 08:08:22;;;;;;;4.40;4.00;;;6.70;99.90;;;;;;4983167;28;20212;-55
2021/01/22 08:10:52;;;;;;;4.60;4.20;;;6.60;99.90;;;;;;4979369;28;20281;-56
2021/01/22 08:13:23;;;;;;;4.45;4.07;;;6.70;99.90;;;;;;4979777;28;20239;-56
2021/01/22 08:16:04;;;;;;;4.30;3.90;;;6.60;99.90;;;;;;4979159;28;20237;-42
2021/01/22 08:18:35;;;;;;;4.18;3.85;;;6.60;99.90;;;;;;4980369;28;20280;-46
2021/01/22 08:21:06;;;;;;;4.93;3.90;;;6.60;99.90;;;;;;4977645;28;20674;-50
2021/01/22 08:23:36;;;;;;;3.55;3.25;;;6.60;99.90;;;;;;4975856;28;20212;-52
2021/01/22 08:26:06;;;;;;;4.18;3.33;;;6.60;99.90;;;;;;4982196;28;20205;-48
2021/01/22 08:28:37;;;;;;;3.92;3.28;;;6.60;99.90;;;;;;4983114;28;20213;-50
2021/01/22 08:31:09;;;;;;;2.90;2.70;;;6.60;99.90;;;;;;4982985;28;20204;-47
2021/01/22 08:33:42;;;;;;;3.25;2.65;;;6.60;99.90;;;;;;4975756;28;20200;-50
2021/01/22 08:36:14;;;;;;;3.80;3.40;;;6.60;99.90;;;;;;4978721;28;20313;-52
2021/01/22 08:38:44;;;;;;;2.88;2.67;;;6.60;99.90;;;;;;4973395;28;20244;-52
2021/01/22 08:41:24;;;;;;;3.60;3.30;;;6.50;99.90;;;;;;4982438;28;20216;-50
2021/01/22 08:43:55;;;;;;;3.58;3.22;;;6.60;99.90;;;;;;4983309;28;20223;-52
2021/01/22 08:46:26;;;;;;;4.53;4.07;;;6.70;99.90;;;;;;4975733;28;20260;-52
2021/01/22 08:48:56;;;;;;;4.32;4.03;;;6.60;99.90;;;;;;4981680;28;20208;-52
2021/01/22 08:51:35;;;;;;;4.05;3.65;;;6.60;99.90;;;;;;4976960;28;20236;-52
2021/01/22 08:54:06;;;;;;;4.32;3.92;;;6.70;99.90;;;;;;4982977;28;20239;-50
2021/01/22 08:56:37;;;;;;;5.88;3.72;;;6.60;99.90;;;;;;4976425;28;20268;-49
2021/01/22 08:59:08;;;;;;;4.60;4.20;;;6.60;99.90;;;;;;4977589;28;20814;-50
2021/01/22 09:01:55;;;;;;;6.15;4.80;;;6.60;99.90;;;;;;4982267;28;20292;-52
2021/01/22 09:04:30;;;;;;;4.82;4.32;;;6.70;99.90;;;;;;4975820;28;20212;-51
2021/01/22 09:07:02;;;;;;;5.45;3.70;;;6.80;99.90;;;;;;4983168;28;20232;-50
2021/01/22 09:09:39;;;;;;;3.63;3.33;;;6.80;99.90;;;;;;4980519;28;20236;-51
2021/01/22 09:12:12;;;;;;;4.18;3.30;;;6.80;99.90;;;;;;4973530;28;20740;-49
2021/01/22 09:14:53;;;;;;;3.58;3.15;;;6.80;99.90;;;;;;4974564;28;20208;-51
2021/01/22 09:17:25;;;;;;;3.08;2.85;;;6.90;99.90;;;;;;4964199;28;20233;-49
2021/01/22 09:20:02;;;;;;;3.45;3.15;;;6.80;99.90;;;;;;4965398;28;20194;-51
2021/01/22 09:22:33;;;;;;;3.35;3.00;;;6.80;99.90;;;;;;4971736;28;20523;-50
2021/01/22 09:25:05;;;;;;;3.90;3.13;;;6.90;99.90;;;;;;4978599;28;20273;-49
2021/01/22 09:27:37;;;;;;;4.47;3.33;;;6.90;99.90;;;;;;4963965;28;20229;-49
2021/01/22 09:30:08;;;;;;;3.50;3.20;;;6.80;99.90;;;;;;4963807;28;20217;-48
2021/01/22 09:32:39;;;;;;;5.75;3.58;;;6.90;99.90;;;;;;4969262;28;20205;-50
2021/01/22 09:35:09;;;;;;;3.10;2.90;;;6.90;99.90;;;;;;4964604;28;20543;-49
2021/01/22 09:37:41;;;;;;;3.70;3.33;;;6.90;99.90;;;;;;4969906;28;20260;-52
2021/01/22 09:40:12;;;;;;;2.92;2.70;;;6.90;99.90;;;;;;4979552;28;20229;-50
2021/01/22 09:42:43;;;;;;;3.53;3.30;;;6.80;99.90;;;;;;4966296;28;20209;-49
2021/01/22 09:45:14;;;;;;;3.47;3.17;;;6.80;99.90;;;;;;4972566;28;21754;-47
2021/01/22 09:47:44;;;;;;;3.47;3.10;;;6.90;99.90;;;;;;4974276;28;20260;-52
2021/01/22 09:50:16;;;;;;;4.13;3.58;;;6.80;99.90;;;;;;4983469;28;20196;-50
2021/01/22 09:52:48;;;;;;;3.70;3.40;;;6.80;99.90;;;;;;4973795;28;20189;-51
2021/01/22 09:55:19;;;;;;;3.85;3.55;;;6.90;99.90;;;;;;4973385;28;20209;-49
2021/01/22 09:57:50;;;;;;;4.03;3.65;;;6.90;99.90;;;;;;4994668;28;20639;-53
2021/01/22 10:00:21;;;;;;;4.03;3.63;;;6.80;99.90;;;;;;4977171;28;20576;-52
2021/01/22 10:02:51;;;;;;;4.05;3.65;;;6.80;99.90;;;;;;4979221;28;20204;-52
2021/01/22 10:05:21;;;;;;;3.88;3.45;;;6.80;99.90;;;;;;4976631;28;20211;-48
2021/01/22 10:07:52;;;;;;;4.15;3.75;;;6.80;99.90;;;;;;4975286;28;20304;-50
2021/01/22 10:10:22;;;;;;;3.63;3.33;;;6.80;99.90;;;;;;4974505;28;20605;-47
2021/01/22 10:12:53;;;;;;;3.72;3.35;;;6.80;99.90;;;;;;4984233;28;20233;-47
2021/01/22 10:15:23;;;;;;;4.20;3.85;;;6.80;99.90;;;;;;4984997;28;20271;-49
2021/01/22 10:17:53;;;;;;;4.90;3.63;;;6.70;99.90;;;;;;4979576;28;20213;-49
2021/01/22 10:20:24;;;;;;;3.42;3.13;;;6.70;99.90;;;;;;4981650;28;20197;-52
2021/01/22 10:22:55;;;;;;;3.60;3.30;;;6.60;99.90;;;;;;4983123;28;20201;-50
2021/01/22 10:25:25;;;;;;;4.57;4.18;;;6.70;99.90;;;;;;4985370;28;20208;-53
2021/01/22 10:27:55;;;;;;;4.43;4.03;;;6.70;99.90;;;;;;4983636;28;20227;-46
2021/01/22 10:30:26;;;;;;;4.75;4.35;;;6.70;99.90;;;;;;4981312;28;20264;-52
2021/01/22 10:32:56;;;;;;;4.38;3.97;;;6.70;99.90;;;;;;4969788;28;20205;-53
2021/01/22 10:35:26;;;;;;;3.80;3.50;;;6.70;99.90;;;;;;4977604;28;20240;-46
2021/01/22 10:37:58;;;;;;;4.50;4.10;;;6.70;99.90;;;;;;4984772;28;20279;-52
2021/01/22 10:40:29;;;;;;;3.92;3.38;;;6.70;99.90;;;;;;4981481;28;20247;-52
2021/01/22 10:42:59;;;;;;;3.63;3.30;;;6.60;99.90;;;;;;4973410;28;20275;-48
2021/01/22 10:45:30;;;;;;;3.70;3.30;;;6.60;99.90;;;;;;4984683;28;20208;-52
2021/01/22 10:48:00;;;;;;;4.32;3.85;;;6.70;99.90;;;;;;4979886;28;20204;-52
2021/01/22 10:50:31;;;;;;;5.15;4.65;;;6.60;99.90;;;;;;4981020;28;20205;-49
2021/01/22 10:53:02;;;;;;;5.15;4.60;;;6.60;99.90;;;;;;4981458;28;20215;-52
2021/01/22 10:55:32;;;;;;;5.05;4.65;;;6.60;99.90;;;;;;4981399;28;20216;-52
2021/01/22 10:58:05;;;;;;;5.00;4.50;;;6.60;99.90;;;;;;4984438;28;20653;-47
2021/01/22 11:00:35;;;;;;;5.05;4.57;;;6.60;99.90;;;;;;4982156;28;20239;-52
2021/01/22 11:03:06;;;;;;;4.50;4.10;;;6.60;99.90;;;;;;4983211;28;20208;-51
2021/01/22 11:05:36;;;;;;;5.82;4.88;;;6.60;99.90;;;;;;4978428;28;20257;-52
2021/01/22 11:08:07;;;;;;;4.35;3.95;;;6.60;99.90;;;;;;4978048;28;20212;-52
2021/01/22 11:10:37;;;;;;;4.53;4.13;;;6.60;99.90;;;;;;4970699;28;20205;-53
2021/01/22 11:13:08;;;;;;;5.88;5.28;;;6.60;99.90;;;;;;4971698;28;20258;-53
2021/01/22 11:15:38;;;;;;;5.05;4.55;;;6.60;99.90;;;;;;4982770;28;20272;-51
2021/01/22 11:21:16;;;;;;;5.53;5.03;;;6.50;99.90;;;;;;4983214;28;20243;-52
2021/01/22 11:23:47;;;;;;;5.65;5.13;;;6.60;99.90;;;;;;4983907;28;20239;-49
2021/01/22 11:26:17;;;;;;;5.95;5.25;;;6.60;99.90;;;;;;4968175;28;20213;-52
2021/01/22 11:28:47;;;;;;;6.90;6.28;;;6.50;99.90;;;;;;4981840;28;20213;-51
2021/01/22 11:31:17;;;;;;;6.55;5.47;;;6.50;99.90;;;;;;4984131;28;20200;-51
2021/01/22 11:33:47;;;;;;;6.70;5.78;;;6.50;99.90;;;;;;4983767;28;20208;-50
2021/01/22 11:36:17;;;;;;;6.38;5.78;;;6.50;99.90;;;;;;4983347;28;20596;-49
2021/01/22 11:38:48;;;;;;;5.70;5.20;;;6.50;99.90;;;;;;4978847;28;20233;-51
2021/01/22 11:41:18;;;;;;;8.95;6.32;;;6.50;99.90;;;;;;4977410;28;20280;-53
2021/01/22 11:43:48;;;;;;;6.95;6.32;;;6.40;99.90;;;;;;4974722;28;20586;-49
2021/01/22 11:46:18;;;;;;;6.97;6.25;;;6.50;99.90;;;;;;4976825;28;20267;-52
2021/01/22 11:48:48;;;;;;;6.40;5.80;;;6.50;99.90;;;;;;4982770;28;20299;-51
2021/01/22 11:51:18;;;;;;;7.50;6.50;;;6.40;99.90;;;;;;4983112;28;20231;-51
2021/01/22 11:53:50;;;;;;;6.32;5.78;;;6.40;99.90;;;;;;4975845;28;20209;-53
2021/01/22 11:56:20;;;;;;;7.40;6.70;;;6.50;99.90;;;;;;4965817;28;20209;-50
2021/01/22 11:58:50;;;;;;;6.82;6.30;;;6.40;99.90;;;;;;4982673;28;20311;-52
2021/01/22 12:01:20;;;;;;;6.57;6.03;;;6.40;99.90;;;;;;4970439;28;20212;-53
2021/01/22 12:03:50;;;;;;;8.15;7.43;;;6.40;99.90;;;;;;4983069;28;20278;-50
2021/01/22 12:06:20;;;;;;;9.00;6.93;;;6.50;99.90;;;;;;4980330;28;20217;-51
2021/01/22 12:08:51;;;;;;;7.55;6.85;;;6.50;99.90;;;;;;4972800;28;20212;-52
2021/01/22 12:11:23;;;;;;;7.20;6.43;;;6.40;99.90;;;;;;4970101;28;20343;-47
2021/01/22 12:13:52;;;;;;;7.90;7.10;;;6.40;99.90;;;;;;4981532;28;20201;-50
2021/01/22 12:16:23;;;;;;;7.82;7.13;;;6.30;99.90;;;;;;4983764;28;20311;-49
2021/01/22 12:18:53;;;;;;;8.82;7.63;;;6.20;99.90;;;;;;4971163;28;20232;-52
2021/01/22 12:21:23;;;;;;;8.48;7.13;;;6.10;99.90;;;;;;4979669;28;20683;-49
2021/01/22 12:23:54;;;;;;;7.63;6.82;;;6.20;99.90;;;;;;4988291;28;20287;-51
2021/01/22 12:26:24;;;;;;;7.78;7.05;;;6.30;99.90;;;;;;4980485;28;20268;-49
2021/01/22 12:28:58;;;;;;;8.48;7.57;;;6.30;99.90;;;;;;4970205;28;20220;-50
2021/01/22 12:31:28;;;;;;;8.88;7.88;;;6.30;99.90;;;;;;4982545;28;20563;-52
2021/01/22 12:33:58;;;;;;;8.90;7.90;;;6.30;99.90;;;;;;4977860;28;20562;-49
2021/01/22 12:36:28;;;;;;;8.35;7.20;;;6.20;99.90;;;;;;4966551;28;20201;-53
2021/01/22 12:39:00;;;;;;;7.78;7.07;;;6.10;99.90;;;;;;4982046;28;20228;-48
2021/01/22 12:41:33;;;;;;;9.45;7.90;;;6.20;99.90;;;;;;4962986;28;20211;-53
2021/01/22 12:44:03;;;;;;;8.85;7.95;;;6.10;99.90;;;;;;4973880;28;20631;-48
2021/01/22 12:46:33;;;;;;;8.40;7.50;;;6.20;99.90;;;;;;4966932;28;20236;-50
2021/01/22 12:49:04;;;;;;;9.98;8.73;;;6.20;99.90;;;;;;4981998;28;20213;-52
2021/01/22 12:51:34;;;;;;;8.32;7.53;;;6.10;99.90;;;;;;4974611;28;20209;-52
2021/01/22 12:54:06;;;;;;;9.40;7.65;;;6.10;99.90;;;;;;4982150;28;20219;-51
2021/01/22 12:56:35;;;;;;;8.27;7.43;;;6.00;99.90;;;;;;4977477;28;20196;-50
2021/01/22 12:59:05;;;;;;;9.20;7.93;;;6.00;99.90;;;;;;4983013;28;20328;-49
2021/01/22 13:01:36;;;;;;;9.20;7.50;;;6.00;99.90;;;;;;4976271;28;20209;-53
2021/01/22 13:04:06;;;;;;;8.88;7.95;;;6.10;99.90;;;;;;4963802;28;20209;-50
2021/01/22 13:06:36;;;;;;;7.93;7.22;;;6.00;99.90;;;;;;4965253;28;20205;-52
2021/01/22 13:09:07;;;;;;;8.40;7.57;;;6.10;99.90;;;;;;4968225;28;20204;-53
2021/01/22 13:11:40;;;;;;;9.15;8.32;;;6.10;99.90;;;;;;4969118;28;20232;-50
2021/01/22 13:14:10;;;;;;;10.05;9.15;;;6.10;99.90;;;;;;4982318;28;20209;-46
2021/01/22 13:16:42;;;;;;;7.68;6.95;;;6.10;99.90;;;;;;4985769;28;20208;-48
2021/01/22 13:19:12;;;;;;;6.95;6.25;;;6.10;99.90;;;;;;4986002;28;20232;-50
2021/01/22 13:21:43;;;;;;;5.78;5.28;;;6.00;99.90;;;;;;4986245;28;20256;-48
2021/01/22 13:24:14;;;;;;;5.70;5.10;;;6.10;99.90;;;;;;4984971;28;20213;-51
2021/01/22 13:26:44;;;;;;;4.85;4.45;;;6.20;99.90;;;;;;4985381;28;20205;-47